Time;durP1;ratioP1;P1;durP2;ratioP2;P2;SDS_P1;SDS_P2;PMS_P1;PMS_P2;Temp;Humidity;BMP_temperature;BMP_pressure;BME280_temperature;BME280_humidity;BME280_pressure;Samples;Min_cycle;Max_cycle;Signal;HPM_P1;HPM_P2
2022/05/04 03:54:33;;;;;;;;;;;;;;;8.34;70.32;100655.91;5032894;28;1355;-88
2022/05/04 03:56:58;;;;;;;;;;;;;;;8.29;70.16;100658.59;5033976;28;1315;-87
2022/05/04 03:59:23;;;;;;;;;;;;;;;8.19;70.56;100662.06;5033856;28;1918;-88
2022/05/04 04:01:48;;;;;;;;;;;;;;;8.20;70.90;100660.16;5035210;28;798;-87
2022/05/04 04:04:14;;;;;;;;;;;;;;;8.16;70.77;100654.41;5033949;28;1079;-87
2022/05/04 04:06:39;;;;;;;;;;;;;;;7.94;71.12;100659.94;5033183;28;1479;-88
2022/05/04 04:09:04;;;;;;;;;;;;;;;7.60;72.22;100669.41;5035616;28;1252;-86
2022/05/04 04:11:29;;;;;;;;;;;;;;;7.77;72.50;100674.75;5031061;28;1597;-87
2022/05/04 04:13:54;;;;;;;;;;;;;;;8.02;71.01;100669.56;5032872;28;1426;-87
2022/05/04 04:16:20;;;;;;;;;;;;;;;7.97;71.37;100667.63;5033807;28;1326;-88
2022/05/04 04:18:45;;;;;;;;;;;;;;;8.02;71.84;100672.28;5030544;28;1358;-88
2022/05/04 04:23:55;;;;;;;;;;;;;;;8.02;70.87;100676.91;5030708;28;1498;-90
2022/05/04 04:26:20;;;;;;;;;;;;;;;7.98;70.51;100673.88;5034876;28;1299;-89
2022/05/04 04:28:45;;;;;;;;;;;;;;;7.93;70.72;100671.94;5034652;28;1282;-88
2022/05/04 04:31:10;;;;;;;;;;;;;;;7.88;70.84;100673.78;5034464;28;1360;-86
2022/05/04 04:33:36;;;;;;;;;;;;;;;7.60;72.26;100677.59;5033600;28;1320;-86
2022/05/04 04:36:01;;;;;;;;;;;;;;;7.75;71.79;100675.00;5035108;28;992;-87
2022/05/04 04:38:26;;;;;;;;;;;;;;;7.54;72.95;100676.72;5033149;28;1197;-88
2022/05/04 04:40:52;;;;;;;;;;;;;;;7.49;72.88;100678.56;5034470;28;1890;-87
2022/05/04 04:43:17;;;;;;;;;;;;;;;7.68;72.63;100674.41;5033120;28;1569;-89
2022/05/04 04:45:48;;;;;;;;;;;;;;;7.79;71.93;100676.16;5016414;28;1003;-87
2022/05/04 04:48:16;;;;;;;;;;;;;;;7.95;71.51;100671.66;5032592;28;1520;-87
2022/05/04 04:50:48;;;;;;;;;;;;;;;7.88;71.47;100680.06;5028868;28;1178;-88
2022/05/04 04:53:14;;;;;;;;;;;;;;;7.82;71.43;100675.66;5038435;28;1917;-87
2022/05/04 04:55:43;;;;;;;;;;;;;;;7.69;73.07;100675.22;5044443;28;1665;-86
2022/05/04 04:58:11;;;;;;;;;;;;;;;7.93;72.41;100677.38;5036342;28;1414;-86
2022/05/04 05:00:36;;;;;;;;;;;;;;;7.96;72.27;100679.59;5036585;28;1975;-86
2022/05/04 05:03:02;;;;;;;;;;;;;;;7.93;73.20;100671.94;5034044;28;1362;-87
2022/05/04 05:05:27;;;;;;;;;;;;;;;8.05;73.09;100688.13;5038922;28;1156;-88
2022/05/04 05:07:52;;;;;;;;;;;;;;;8.25;72.29;100680.09;5040378;28;1028;-87
2022/05/04 05:10:17;;;;;;;;;;;;;;;8.22;72.80;100680.63;5040654;28;1244;-87
2022/05/04 05:12:43;;;;;;;;;;;;;;;8.22;72.34;100682.53;5039912;28;1791;-88
2022/05/04 05:17:52;;;;;;;;;;;;;;;8.32;72.60;100672.56;5058760;28;1605;-86
2022/05/04 05:20:17;;;;;;;;;;;;;;;8.38;72.65;100675.31;5058689;28;1890;-87
2022/05/04 05:22:43;;;;;;;;;;;;;;;8.38;73.14;100673.41;5056613;28;927;-85
2022/05/04 05:25:08;;;;;;;;;;;;;;;8.44;72.91;100675.09;5039818;28;1414;-86
2022/05/04 05:27:33;;;;;;;;;;;;;;;8.38;73.22;100672.59;5032349;28;1342;-88
2022/05/04 05:29:58;;;;;;;;;;;;;;;8.27;74.14;100677.94;5040120;28;1336;-86
2022/05/04 05:32:24;;;;;;;;;;;;;;;8.58;73.96;100679.03;5040030;28;1204;-89
2022/05/04 05:34:51;;;;;;;;;;;;;;;8.80;73.29;100676.16;5057724;28;1104;-88
2022/05/04 05:37:17;;;;;;;;;;;;;;;8.93;72.91;100680.31;5040122;28;1190;-88
2022/05/04 05:39:42;;;;;;;;;;;;;;;8.96;72.95;100679.78;5039764;28;1965;-88
2022/05/04 05:42:08;;;;;;;;;;;;;;;8.99;73.00;100676.53;5040067;28;1012;-87
2022/05/04 05:44:33;;;;;;;;;;;;;;;8.87;73.28;100678.63;5039971;28;1263;-86
2022/05/04 05:46:58;;;;;;;;;;;;;;;8.85;72.63;100676.16;5055929;28;1758;-90
2022/05/04 05:49:23;;;;;;;;;;;;;;;9.03;71.97;100675.72;5054248;28;1361;-88
2022/05/04 05:51:48;;;;;;;;;;;;;;;9.20;72.49;100674.69;5030728;28;1422;-86
2022/05/04 05:54:14;;;;;;;;;;;;;;;9.13;72.46;100672.22;5057178;28;1347;-87
2022/05/04 05:56:39;;;;;;;;;;;;;;;9.24;72.67;100671.19;5037464;28;912;-85
2022/05/04 05:59:04;;;;;;;;;;;;;;;9.40;72.58;100681.06;5032229;28;1965;-87
2022/05/04 06:01:29;;;;;;;;;;;;;;;9.47;71.88;100675.34;5027661;28;1184;-88
2022/05/04 06:03:54;;;;;;;;;;;;;;;9.28;72.14;100672.25;5027884;28;1726;-89
2022/05/04 06:06:20;;;;;;;;;;;;;;;9.37;71.20;100675.31;5027115;28;964;-88
2022/05/04 06:08:46;;;;;;;;;;;;;;;9.54;71.66;100675.06;5037527;28;1199;-86
2022/05/04 06:11:11;;;;;;;;;;;;;;;9.55;68.46;100674.81;5038957;28;1375;-88
2022/05/04 06:13:36;;;;;;;;;;;;;;;9.60;69.17;100674.03;5040999;28;2027;-88
2022/05/04 06:16:01;;;;;;;;;;;;;;;9.49;68.78;100668.53;5029201;28;1617;-88
2022/05/04 06:18:26;;;;;;;;;;;;;;;9.46;68.74;100668.22;5056497;28;1353;-89
2022/05/04 06:20:51;;;;;;;;;;;;;;;9.46;67.94;100669.06;5057018;28;1898;-91
2022/05/04 06:23:17;;;;;;;;;;;;;;;9.48;68.45;100672.34;5035505;28;1277;-88
2022/05/04 06:25:42;;;;;;;;;;;;;;;9.70;67.87;100663.09;5038096;28;1226;-89
2022/05/04 06:28:07;;;;;;;;;;;;;;;9.81;68.10;100667.47;5057815;28;833;-89
2022/05/04 06:36:01;;;;;;;;;;;;;;;10.01;67.99;100664.78;5055304;28;1194;-89
2022/05/04 06:38:26;;;;;;;;;;;;;;;10.06;68.68;100664.78;5029986;28;1691;-87
2022/05/04 06:40:51;;;;;;;;;;;;;;;10.08;67.38;100667.25;5049418;28;1879;-87
2022/05/04 06:43:16;;;;;;;;;;;;;;;10.07;66.36;100665.59;5047453;28;1902;-87
2022/05/04 06:45:41;;;;;;;;;;;;;;;9.94;67.25;100668.88;5034723;28;1622;-88
2022/05/04 06:48:07;;;;;;;;;;;;;;;10.03;67.57;100665.34;5053968;28;1804;-87
2022/05/04 06:50:32;;;;;;;;;;;;;;;10.14;67.86;100669.69;5038532;28;1525;-87
2022/05/04 06:52:57;;;;;;;;;;;;;;;10.14;67.28;100661.50;5055678;28;1317;-87
2022/05/04 06:55:22;;;;;;;;;;;;;;;10.26;66.95;100664.00;5038407;28;1027;-87
2022/05/04 06:57:47;;;;;;;;;;;;;;;10.34;66.67;100662.63;5049145;28;1524;-87
2022/05/04 07:00:13;;;;;;;;;;;;;;;10.38;67.91;100669.97;5029876;28;1965;-88
2022/05/04 07:02:38;;;;;;;;;;;;;;;10.35;66.44;100667.81;5036475;28;1297;-89
2022/05/04 07:05:04;;;;;;;;;;;;;;;10.44;66.67;100668.09;5029524;28;1257;-86
2022/05/04 07:07:30;;;;;;;;;;;;;;;10.51;66.18;100663.16;5052379;28;1572;-86
2022/05/04 07:09:55;;;;;;;;;;;;;;;10.55;65.64;100665.03;5023795;28;1574;-87
2022/05/04 07:12:20;;;;;;;;;;;;;;;10.49;65.17;100670.81;5028111;28;1348;-86
2022/05/04 07:14:46;;;;;;;;;;;;;;;10.57;65.72;100659.28;5037479;28;1240;-86
2022/05/04 07:17:11;;;;;;;;;;;;;;;10.63;65.02;100656.25;5031110;28;1493;-88
2022/05/04 07:19:36;;;;;;;;;;;;;;;10.72;66.07;100653.00;5028928;28;1914;-89
2022/05/04 07:22:01;;;;;;;;;;;;;;;10.79;65.76;100653.50;5038151;28;1181;-88
2022/05/04 07:24:26;;;;;;;;;;;;;;;10.85;65.88;100641.44;5018205;28;1457;-88
2022/05/04 07:26:51;;;;;;;;;;;;;;;10.91;65.46;100652.09;5047042;28;1245;-86
2022/05/04 07:29:17;;;;;;;;;;;;;;;10.96;65.68;100648.53;5055231;28;1318;-87
2022/05/04 07:31:42;;;;;;;;;;;;;;;10.99;65.50;100646.03;5055363;28;980;-87
2022/05/04 07:34:07;;;;;;;;;;;;;;;11.03;65.52;100651.78;5037208;28;1231;-87
2022/05/04 07:36:32;;;;;;;;;;;;;;;10.93;65.05;100647.16;5055116;28;1747;-88
2022/05/04 07:38:57;;;;;;;;;;;;;;;10.99;65.25;100637.81;5055022;28;1894;-88
2022/05/04 07:44:06;;;;;;;;;;;;;;;11.19;66.27;100647.06;5055344;28;670;-86
2022/05/04 07:46:33;;;;;;;;;;;;;;;11.26;65.61;100647.56;5036717;28;1421;-86
2022/05/04 07:48:58;;;;;;;;;;;;;;;11.35;65.39;100649.44;5036914;28;1288;-86
2022/05/04 07:51:23;;;;;;;;;;;;;;;11.40;65.98;100643.09;5033168;28;1767;-90
2022/05/04 07:53:49;;;;;;;;;;;;;;;11.44;65.82;100644.19;5032800;28;1047;-89
2022/05/04 07:56:14;;;;;;;;;;;;;;;11.52;65.93;100643.59;5033489;28;1251;-87
2022/05/04 07:58:39;;;;;;;;;;;;;;;11.59;65.88;100641.34;5034878;28;1283;-88
2022/05/04 08:06:32;;;;;;;;;;;;;;;11.69;66.62;100638.56;5055203;28;642;-87
2022/05/04 08:08:57;;;;;;;;;;;;;;;11.78;66.16;100630.56;5036527;28;1392;-87
2022/05/04 08:11:22;;;;;;;;;;;;;;;11.82;65.61;100628.91;5036044;28;1744;-88
2022/05/04 08:13:47;;;;;;;;;;;;;;;11.85;66.69;100628.31;5036011;28;972;-89
2022/05/04 08:16:13;;;;;;;;;;;;;;;11.93;66.41;100635.94;5035949;28;1061;-89
2022/05/04 08:18:41;;;;;;;;;;;;;;;11.97;66.15;100626.03;5036334;28;1331;-89
2022/05/04 08:21:06;;;;;;;;;;;;;;;11.96;66.45;100626.31;5028477;28;1953;-88
2022/05/04 08:23:32;;;;;;;;;;;;;;;11.93;64.92;100630.44;5034310;28;981;-88
2022/05/04 08:25:57;;;;;;;;;;;;;;;11.93;64.38;100629.63;5034119;28;893;-88
2022/05/04 08:28:32;;;;;;;;;;;;;;;11.99;65.41;100631.25;5032563;28;1260;-87
2022/05/04 08:30:57;;;;;;;;;;;;;;;12.02;64.50;100633.41;5028671;28;1695;-87
2022/05/04 08:33:23;;;;;;;;;;;;;;;12.13;65.26;100626.72;5038316;28;1362;-88
2022/05/04 08:35:49;;;;;;;;;;;;;;;12.25;65.36;100629.91;5038324;28;1217;-87
2022/05/04 08:38:15;;;;;;;;;;;;;;;12.31;64.51;100641.66;5040058;28;1300;-89
2022/05/04 08:40:40;;;;;;;;;;;;;;;12.32;63.58;100635.91;5035300;28;1952;-89
2022/05/04 08:43:07;;;;;;;;;;;;;;;12.35;63.73;100638.03;5035451;28;1239;-89
2022/05/04 08:45:35;;;;;;;;;;;;;;;12.39;63.04;100638.31;5042188;28;1756;-89
2022/05/04 08:48:02;;;;;;;;;;;;;;;12.42;63.35;100633.03;5033780;28;814;-89
2022/05/04 08:50:27;;;;;;;;;;;;;;;12.45;63.55;100639.88;5052112;28;1305;-89
2022/05/04 08:52:55;;;;;;;;;;;;;;;12.50;64.87;100628.88;5035555;28;1302;-89
2022/05/04 08:55:21;;;;;;;;;;;;;;;12.50;62.28;100637.88;5053600;28;908;-87
2022/05/04 08:57:46;;;;;;;;;;;;;;;12.48;62.34;100629.16;5036553;28;1272;-88
2022/05/04 09:00:12;;;;;;;;;;;;;;;12.45;63.32;100626.97;5035970;28;1906;-87
2022/05/04 09:02:38;;;;;;;;;;;;;;;12.50;63.28;100624.16;5036316;28;1368;-87
2022/05/04 09:05:19;;;;;;;;;;;;;;;12.60;62.81;100625.16;5016129;28;1530;-87
2022/05/04 09:07:46;;;;;;;;;;;;;;;12.67;62.57;100615.50;5032816;28;1415;-88
2022/05/04 09:10:16;;;;;;;;;;;;;;;12.71;62.71;100619.28;5037058;28;1442;-88
2022/05/04 09:12:44;;;;;;;;;;;;;;;12.85;62.15;100616.66;5036304;28;1251;-88
2022/05/04 09:15:20;;;;;;;;;;;;;;;13.04;63.30;100620.25;5035598;28;1400;-89
2022/05/04 09:17:45;;;;;;;;;;;;;;;13.25;63.32;100610.69;5035990;28;1311;-89
2022/05/04 09:22:55;;;;;;;;;;;;;;;13.15;63.11;100612.75;5041071;28;1239;-89
2022/05/04 09:25:20;;;;;;;;;;;;;;;13.06;62.74;100604.31;5047063;28;1252;-86
2022/05/04 09:27:46;;;;;;;;;;;;;;;13.10;62.31;100605.34;5035971;28;1447;-88
2022/05/04 09:30:12;;;;;;;;;;;;;;;13.24;63.47;100616.47;5032369;28;1365;-87
2022/05/04 09:32:39;;;;;;;;;;;;;;;13.25;62.70;100610.69;5042177;28;881;-87
2022/05/04 09:35:04;;;;;;;;;;;;;;;13.25;61.96;100607.94;5032285;28;1405;-88
2022/05/04 09:45:54;;;;;;;;;;;;;;;13.54;60.83;100607.78;5048916;28;592;-87
2022/05/04 09:48:30;;;;;;;;;;;;;;;13.63;60.90;100599.69;5035090;28;1429;-87
2022/05/04 09:51:06;;;;;;;;;;;;;;;13.76;62.87;100612.69;5034763;28;1379;-88
2022/05/04 09:53:32;;;;;;;;;;;;;;;13.72;60.59;100599.81;5045853;28;1531;-90
2022/05/04 09:55:58;;;;;;;;;;;;;;;13.61;58.81;100599.97;5056834;28;1226;-86
2022/05/04 09:58:27;;;;;;;;;;;;;;;13.57;59.49;100604.47;5038626;28;1436;-90
2022/05/04 10:00:52;;;;;;;;;;;;;;;13.61;60.01;100601.91;5033026;28;1910;-91
2022/05/04 10:03:18;;;;;;;;;;;;;;;13.70;60.71;100602.06;5057852;28;1446;-87
2022/05/04 10:05:45;;;;;;;;;;;;;;;13.75;61.30;100599.25;5038401;28;1528;-90
2022/05/04 10:08:10;;;;;;;;;;;;;;;13.84;61.76;100595.50;5049553;28;1372;-91
2022/05/04 10:10:36;;;;;;;;;;;;;;;13.96;61.85;100600.53;5057615;28;1008;-89
2022/05/04 10:13:01;;;;;;;;;;;;;;;13.96;60.26;100600.53;5038732;28;1649;-89
2022/05/04 10:15:27;;;;;;;;;;;;;;;14.12;62.31;100598.38;5038745;28;1322;-88
2022/05/04 10:17:55;;;;;;;;;;;;;;;14.32;61.89;100598.81;5050069;28;1509;-89
2022/05/04 10:20:21;;;;;;;;;;;;;;;14.32;60.29;100600.75;5053731;28;1961;-90
2022/05/04 10:22:54;;;;;;;;;;;;;;;14.32;58.37;100596.06;5042005;28;1566;-89
2022/05/04 10:25:20;;;;;;;;;;;;;;;14.30;60.01;100598.28;5034272;28;1622;-91
2022/05/04 10:27:49;;;;;;;;;;;;;;;14.32;57.55;100592.47;5057443;28;808;-88
2022/05/04 10:30:34;;;;;;;;;;;;;;;14.43;58.33;100582.94;5050925;28;1704;-90
2022/05/04 10:33:02;;;;;;;;;;;;;;;14.59;59.17;100580.72;5055748;28;1713;-90
2022/05/04 10:35:43;;;;;;;;;;;;;;;14.73;59.81;100576.03;5056347;28;1341;-90
2022/05/04 10:38:18;;;;;;;;;;;;;;;14.85;60.23;100578.28;5055770;28;1733;-90
2022/05/04 10:41:06;;;;;;;;;;;;;;;14.88;59.61;100577.66;5051628;28;1957;-89
2022/05/04 10:43:40;;;;;;;;;;;;;;;14.91;59.65;100579.78;5043775;28;1411;-90
2022/05/04 10:46:18;;;;;;;;;;;;;;;14.93;59.17;100574.78;5049622;28;1459;-90
2022/05/04 10:48:44;;;;;;;;;;;;;;;14.91;58.53;100571.53;5041339;28;1313;-88
2022/05/04 10:51:18;;;;;;;;;;;;;;;15.01;60.33;100574.06;5055524;28;782;-89
2022/05/04 10:53:44;;;;;;;;;;;;;;;15.24;58.84;100563.91;5038668;28;1227;-91
2022/05/04 10:56:10;;;;;;;;;;;;;;;15.44;60.02;100572.56;5038674;28;1218;-89
2022/05/04 10:58:41;;;;;;;;;;;;;;;15.68;60.06;100568.72;5057243;28;1233;-89
2022/05/04 11:01:07;;;;;;;;;;;;;;;15.83;59.85;100568.34;5038442;28;1916;-90
2022/05/04 11:03:36;;;;;;;;;;;;;;;15.75;56.55;100569.09;5037933;28;1255;-88
2022/05/04 11:06:10;;;;;;;;;;;;;;;15.58;56.62;100567.00;5059586;28;964;-89
2022/05/04 11:08:36;;;;;;;;;;;;;;;15.55;56.96;100567.66;5055444;28;1885;-88
2022/05/04 11:11:02;;;;;;;;;;;;;;;15.58;56.63;100574.47;5037263;28;1432;-88
2022/05/04 11:13:28;;;;;;;;;;;;;;;15.54;55.61;100568.78;5034043;28;1511;-88
2022/05/04 11:15:53;;;;;;;;;;;;;;;15.64;56.43;100559.44;5046373;28;1601;-87
2022/05/04 11:18:19;;;;;;;;;;;;;;;15.71;57.08;100566.16;5054813;28;1313;-90
2022/05/04 11:20:47;;;;;;;;;;;;;;;15.59;56.79;100560.38;5037694;28;1957;-89
2022/05/04 11:23:12;;;;;;;;;;;;;;;15.56;56.65;100571.22;5037222;28;1308;-89
2022/05/04 11:25:38;;;;;;;;;;;;;;;15.55;56.36;100564.91;5037052;28;1743;-89
2022/05/04 11:28:03;;;;;;;;;;;;;;;15.58;56.00;100564.25;5048960;28;1554;-90
2022/05/04 11:30:28;;;;;;;;;;;;;;;15.62;55.71;100562.50;5035632;28;1279;-90
2022/05/04 11:32:54;;;;;;;;;;;;;;;15.52;55.17;100555.25;5036983;28;1773;-89
2022/05/04 11:35:19;;;;;;;;;;;;;;;15.48;55.88;100559.75;5037345;28;1472;-90
2022/05/04 11:37:44;;;;;;;;;;;;;;;15.50;56.53;100563.03;5050982;28;1216;-89
2022/05/04 11:40:15;;;;;;;;;;;;;;;15.54;57.53;100563.25;5054876;28;1893;-90
2022/05/04 11:42:40;;;;;;;;;;;;;;;15.50;57.29;100556.69;5036992;28;1694;-89
2022/05/04 11:45:05;;;;;;;;;;;;;;;15.36;56.22;100556.75;5036418;28;1341;-90
2022/05/04 11:47:31;;;;;;;;;;;;;;;15.33;56.96;100553.78;5033415;28;1618;-90
2022/05/04 11:49:56;;;;;;;;;;;;;;;15.34;57.09;100550.72;5045442;28;1463;-90
2022/05/04 11:52:21;;;;;;;;;;;;;;;15.33;56.64;100553.78;5035340;28;1673;-90
2022/05/04 11:54:46;;;;;;;;;;;;;;;15.30;56.55;100546.97;5029978;28;1409;-91
2022/05/04 11:57:12;;;;;;;;;;;;;;;15.35;56.53;100546.84;5038537;28;1806;-88
2022/05/04 11:59:37;;;;;;;;;;;;;;;15.41;55.88;100542.00;5046442;28;1959;-89
2022/05/04 12:02:03;;;;;;;;;;;;;;;15.55;56.51;100539.25;5031492;28;1407;-90
2022/05/04 12:04:28;;;;;;;;;;;;;;;15.67;55.69;100545.00;5047654;28;1083;-88
2022/05/04 12:06:54;;;;;;;;;;;;;;;15.72;54.77;100539.38;5031838;28;1445;-88
2022/05/04 12:09:20;;;;;;;;;;;;;;;15.80;54.58;100544.16;5026627;28;1372;-89
2022/05/04 12:11:45;;;;;;;;;;;;;;;15.85;54.89;100536.53;5055175;28;1048;-88
2022/05/04 12:14:11;;;;;;;;;;;;;;;15.86;53.97;100537.34;5054465;28;983;-87
2022/05/04 12:16:37;;;;;;;;;;;;;;;15.86;53.43;100540.13;5036264;28;1679;-88
2022/05/04 12:19:02;;;;;;;;;;;;;;;15.82;54.29;100530.84;5028154;28;1815;-86
2022/05/04 12:21:27;;;;;;;;;;;;;;;15.81;53.10;100532.78;5033497;28;1894;-87
2022/05/04 12:23:53;;;;;;;;;;;;;;;15.83;53.54;100529.69;5031940;28;1676;-87
2022/05/04 12:26:19;;;;;;;;;;;;;;;15.86;54.07;100523.56;5035856;28;1198;-87
2022/05/04 12:33:08;;;;;;;;;;;;;;;15.77;53.25;100517.97;5045197;28;1397;-87
2022/05/04 12:34:14;;;;;;;;;;;;;;;15.79;53.65;100512.16;5034002;28;1084;-88
2022/05/04 12:36:39;;;;;;;;;;;;;;;15.94;54.13;100511.75;5049347;28;1333;-87
2022/05/04 12:39:05;;;;;;;;;;;;;;;16.22;53.92;100501.34;5052365;28;1278;-87
2022/05/04 12:41:30;;;;;;;;;;;;;;;16.54;53.14;100505.69;5047766;28;1055;-86
2022/05/04 12:43:55;;;;;;;;;;;;;;;16.93;53.40;100496.53;5048174;28;1368;-87
2022/05/04 12:46:20;;;;;;;;;;;;;;;17.24;53.44;100502.78;5053132;28;960;-88
2022/05/04 12:48:46;;;;;;;;;;;;;;;17.54;52.63;100500.97;5053002;28;1344;-87
2022/05/04 12:51:14;;;;;;;;;;;;;;;17.53;50.52;100498.50;5025689;28;1333;-87
2022/05/04 12:53:39;;;;;;;;;;;;;;;17.40;51.18;100490.06;5052424;28;1454;-88
2022/05/04 12:58:50;;;;;;;;;;;;;;;17.63;51.50;100489.91;5048781;28;1490;-87
2022/05/04 13:01:15;;;;;;;;;;;;;;;17.82;50.72;100481.25;5030906;28;1937;-88
2022/05/04 13:03:40;;;;;;;;;;;;;;;18.08;50.32;100480.03;5040975;28;1309;-89
2022/05/04 13:06:05;;;;;;;;;;;;;;;18.13;48.67;100474.31;5034729;28;1547;-88
2022/05/04 13:08:30;;;;;;;;;;;;;;;18.26;47.00;100469.72;5048083;28;1321;-88
2022/05/04 13:10:56;;;;;;;;;;;;;;;18.63;48.61;100467.28;5033824;28;868;-86
2022/05/04 13:13:22;;;;;;;;;;;;;;;18.74;48.03;100479.59;5022392;28;1262;-87
2022/05/04 13:15:48;;;;;;;;;;;;;;;18.45;47.00;100470.13;5033032;28;1216;-88
2022/05/04 13:18:13;;;;;;;;;;;;;;;19.83;43.26;100466.28;5032128;28;1616;-85
2022/05/04 13:20:39;;;;;;;;;;;;;;;23.55;35.77;100455.59;5035091;28;1953;-87
2022/05/04 13:23:05;;;;;;;;;;;;;;;25.99;31.54;100448.13;5028790;28;1492;-87
2022/05/04 13:25:30;;;;;;;;;;;;;;;27.29;29.10;100445.88;5030231;28;1371;-85
2022/05/04 13:27:56;;;;;;;;;;;;;;;27.31;29.22;100451.88;5037074;28;778;-90
2022/05/04 13:30:21;;;;;;;;;;;;;;;26.50;28.12;100450.19;5035873;28;1383;-87
2022/05/04 13:32:46;;;;;;;;;;;;;;;27.72;26.60;100441.22;5038869;28;1207;-88
2022/05/04 13:35:11;;;;;;;;;;;;;;;28.10;25.45;100434.03;5056326;28;1378;-89
2022/05/04 13:37:36;;;;;;;;;;;;;;;26.65;27.04;100443.47;5056599;28;1042;-89
2022/05/04 13:40:02;;;;;;;;;;;;;;;27.43;26.14;100440.31;5035077;28;1898;-89
2022/05/04 13:42:28;;;;;;;;;;;;;;;27.11;27.67;100437.38;5046206;28;1456;-87
2022/05/04 13:44:53;;;;;;;;;;;;;;;28.43;25.34;100430.84;5032612;28;1152;-89
2022/05/04 13:47:19;;;;;;;;;;;;;;;26.78;27.07;100429.13;5036978;28;1380;-86
2022/05/04 13:49:44;;;;;;;;;;;;;;;23.95;31.29;100432.78;5036462;28;1592;-86
2022/05/04 13:54:54;;;;;;;;;;;;;;;24.72;32.46;100427.69;5049850;28;1242;-87
2022/05/04 13:57:19;;;;;;;;;;;;;;;22.90;34.30;100427.47;5037751;28;1433;-87
2022/05/04 13:59:44;;;;;;;;;;;;;;;21.13;38.71;100435.56;5055039;28;1906;-90
2022/05/04 14:02:10;;;;;;;;;;;;;;;20.39;40.33;100436.06;5054113;28;1413;-87
2022/05/04 14:04:37;;;;;;;;;;;;;;;20.27;40.55;100427.69;5018979;28;1176;-86
2022/05/04 14:07:02;;;;;;;;;;;;;;;19.56;42.96;100431.59;5035254;28;1403;-88
2022/05/04 14:09:27;;;;;;;;;;;;;;;19.55;42.48;100430.00;5049785;28;1296;-88
2022/05/04 14:11:52;;;;;;;;;;;;;;;19.61;43.35;100436.16;5056291;28;1266;-89
2022/05/04 14:17:02;;;;;;;;;;;;;;;19.17;43.86;100424.59;5050066;28;1142;-88
2022/05/04 14:19:27;;;;;;;;;;;;;;;19.41;43.92;100437.78;5054342;28;1890;-89
2022/05/04 14:21:52;;;;;;;;;;;;;;;19.54;43.34;100430.34;5036473;28;1424;-88
2022/05/04 14:24:18;;;;;;;;;;;;;;;19.33;43.26;100429.53;5032298;28;1245;-89
2022/05/04 14:26:43;;;;;;;;;;;;;;;19.15;44.44;100432.44;5037963;28;1457;-88
2022/05/04 14:29:08;;;;;;;;;;;;;;;19.11;43.84;100417.66;5034149;28;1384;-90
2022/05/04 14:31:33;;;;;;;;;;;;;;;19.08;44.36;100421.09;5027054;28;1249;-87
2022/05/04 14:33:59;;;;;;;;;;;;;;;19.11;43.81;100430.72;5047061;28;988;-87
2022/05/04 14:36:24;;;;;;;;;;;;;;;19.01;44.04;100428.34;5034354;28;1201;-89
2022/05/04 14:38:49;;;;;;;;;;;;;;;19.23;44.79;100430.75;5052998;28;1411;-88
2022/05/04 14:41:14;;;;;;;;;;;;;;;19.41;43.32;100432.22;5031367;28;1887;-89
2022/05/04 14:43:40;;;;;;;;;;;;;;;19.24;45.84;100438.75;5043884;28;1372;-87
2022/05/04 14:46:05;;;;;;;;;;;;;;;19.19;46.81;100444.50;5028558;28;1167;-88
2022/05/04 14:48:30;;;;;;;;;;;;;;;19.22;45.58;100435.50;5041217;23;1912;-89
2022/05/04 14:50:55;;;;;;;;;;;;;;;19.04;45.88;100439.59;5027225;28;1528;-90
2022/05/04 14:53:20;;;;;;;;;;;;;;;19.08;44.75;100434.97;4998499;28;1824;-89
2022/05/04 14:55:46;;;;;;;;;;;;;;;19.34;44.59;100439.47;5021562;28;1429;-89
2022/05/04 14:58:11;;;;;;;;;;;;;;;20.59;42.05;100423.97;5016242;28;1424;-89
2022/05/04 15:00:36;;;;;;;;;;;;;;;21.27;39.63;100426.84;5003286;28;1902;-89
2022/05/04 15:05:46;;;;;;;;;;;;;;;22.37;40.27;100427.00;5016008;28;1188;-90
2022/05/04 15:08:11;;;;;;;;;;;;;;;22.00;39.78;100428.47;4998820;28;1477;-90
2022/05/04 15:10:37;;;;;;;;;;;;;;;21.23;42.35;100428.72;4999811;28;1094;-90
2022/05/04 15:13:03;;;;;;;;;;;;;;;20.79;42.45;100430.56;5004994;28;1243;-90
2022/05/04 15:15:28;;;;;;;;;;;;;;;20.59;41.42;100443.44;5005767;28;1323;-89
2022/05/04 15:17:57;;;;;;;;;;;;;;;20.12;41.35;100440.28;5021997;28;1295;-89
2022/05/04 15:20:23;;;;;;;;;;;;;;;20.08;41.84;100435.75;5014570;28;1914;-90
2022/05/04 15:22:48;;;;;;;;;;;;;;;19.98;43.79;100437.88;5003747;28;1442;-89
2022/05/04 15:25:13;;;;;;;;;;;;;;;20.20;43.41;100435.78;4978417;28;1348;-89
2022/05/04 15:27:38;;;;;;;;;;;;;;;20.90;42.01;100433.69;4992934;28;1352;-90
2022/05/04 15:30:06;;;;;;;;;;;;;;;20.73;43.79;100431.97;5029035;28;1244;-89
2022/05/04 15:32:31;;;;;;;;;;;;;;;20.15;45.09;100438.81;5030132;28;1293;-89
2022/05/04 15:34:57;;;;;;;;;;;;;;;19.94;44.01;100441.66;5006687;28;1494;-88
2022/05/04 15:37:22;;;;;;;;;;;;;;;19.77;43.39;100439.88;4997449;28;1358;-89
2022/05/04 15:39:47;;;;;;;;;;;;;;;19.26;45.89;100453.09;5020806;28;1965;-89
2022/05/04 15:42:13;;;;;;;;;;;;;;;19.35;44.70;100441.09;5000339;28;1212;-89
2022/05/04 15:44:38;;;;;;;;;;;;;;;19.28;43.97;100438.88;5014541;28;1283;-89
2022/05/04 15:47:03;;;;;;;;;;;;;;;18.99;45.41;100442.53;5004024;28;1190;-89
2022/05/04 15:49:28;;;;;;;;;;;;;;;18.93;44.73;100449.44;5022253;28;1349;-89
2022/05/04 15:51:53;;;;;;;;;;;;;;;18.62;47.44;100449.03;5009250;28;1633;-89
2022/05/04 15:54:19;;;;;;;;;;;;;;;18.72;48.01;100443.06;5016950;28;1264;-89
2022/05/04 15:56:50;;;;;;;;;;;;;;;18.54;48.65;100451.44;5000040;28;1217;-89
2022/05/04 15:59:15;;;;;;;;;;;;;;;19.10;46.53;100452.09;5016067;28;1894;-88
2022/05/04 16:01:41;;;;;;;;;;;;;;;19.33;46.37;100452.53;5019664;28;1691;-89
2022/05/04 16:04:09;;;;;;;;;;;;;;;19.45;46.47;100449.00;4996607;28;1390;-90
2022/05/04 16:06:36;;;;;;;;;;;;;;;19.39;45.18;100448.44;5014441;28;829;-89
2022/05/04 16:09:02;;;;;;;;;;;;;;;19.43;46.05;100446.56;5004388;28;1313;-88
2022/05/04 16:11:27;;;;;;;;;;;;;;;19.70;46.65;100438.81;5026894;28;1243;-89
2022/05/04 16:13:53;;;;;;;;;;;;;;;19.74;46.69;100440.56;5001394;28;1573;-89
2022/05/04 16:16:18;;;;;;;;;;;;;;;19.70;45.49;100441.59;4993674;28;1283;-88
2022/05/04 16:21:45;;;;;;;;;;;;;;;19.71;45.53;100424.59;5017728;28;1898;-90
2022/05/04 16:24:12;;;;;;;;;;;;;;;19.97;45.43;100432.66;5025304;28;1086;-90
2022/05/04 16:26:41;;;;;;;;;;;;;;;20.16;44.13;100432.09;5016198;28;1551;-89
2022/05/04 16:29:06;;;;;;;;;;;;;;;19.87;44.61;100433.09;5016063;28;1265;-89
2022/05/04 16:31:32;;;;;;;;;;;;;;;19.51;46.13;100434.59;5005830;28;1557;-89
2022/05/04 16:33:57;;;;;;;;;;;;;;;19.41;47.29;100443.31;4994767;28;1328;-89
2022/05/04 16:36:23;;;;;;;;;;;;;;;19.17;45.82;100440.44;4995939;28;1260;-90
2022/05/04 16:38:48;;;;;;;;;;;;;;;18.87;47.13;100440.53;4996588;28;1280;-89
2022/05/04 16:41:13;;;;;;;;;;;;;;;18.66;47.34;100444.41;4994602;28;1961;-89
2022/05/04 16:43:38;;;;;;;;;;;;;;;18.65;46.58;100442.78;5025098;28;1019;-89
2022/05/04 16:46:04;;;;;;;;;;;;;;;18.65;46.75;100442.78;5033564;28;976;-89
2022/05/04 16:48:29;;;;;;;;;;;;;;;18.47;47.25;100444.81;5007926;28;1522;-89
2022/05/04 16:50:54;;;;;;;;;;;;;;;18.53;47.78;100444.31;5013343;28;992;-89
2022/05/04 16:53:20;;;;;;;;;;;;;;;18.73;49.17;100448.28;4991804;28;1197;-90
2022/05/04 16:55:45;;;;;;;;;;;;;;;18.92;48.19;100444.22;5002644;28;1248;-90
2022/05/04 16:58:10;;;;;;;;;;;;;;;19.22;46.76;100445.81;4996046;28;1311;-90
2022/05/04 17:00:35;;;;;;;;;;;;;;;19.21;47.05;100442.22;5005140;28;1969;-89
2022/05/04 17:03:00;;;;;;;;;;;;;;;19.11;45.76;100444.59;5025336;28;1570;-89
2022/05/04 17:05:26;;;;;;;;;;;;;;;19.02;46.54;100447.44;5001419;28;1151;-90
2022/05/04 17:07:51;;;;;;;;;;;;;;;19.14;47.18;100441.13;5005384;28;1342;-90
2022/05/04 17:10:16;;;;;;;;;;;;;;;19.12;46.51;100446.22;5025531;28;1461;-89
2022/05/04 17:12:42;;;;;;;;;;;;;;;18.86;47.96;100443.63;5007487;28;1427;-89
2022/05/04 17:15:07;;;;;;;;;;;;;;;18.47;49.13;100447.59;5014603;28;1231;-90
2022/05/04 17:17:33;;;;;;;;;;;;;;;18.37;47.62;100448.00;5029460;28;1279;-89
2022/05/04 17:19:58;;;;;;;;;;;;;;;18.33;51.26;100452.56;5017569;28;1894;-89
2022/05/04 17:22:24;;;;;;;;;;;;;;;18.40;49.02;100450.06;5017604;28;814;-89
2022/05/04 17:24:50;;;;;;;;;;;;;;;18.36;49.36;100454.66;5000038;28;1331;-89